createdAt,value
2022-10-22T00:13:23.303Z,14.75
2022-10-22T00:28:29.037Z,14.81
2022-10-22T00:43:34.815Z,14.69
2022-10-22T00:58:45.470Z,14.69
2022-10-22T01:13:59.513Z,14.75
2022-10-22T01:29:12.420Z,14.81
2022-10-22T01:44:29.950Z,14.81
2022-10-22T01:59:47.247Z,14.75
2022-10-22T02:14:53.820Z,14.75
2022-10-22T02:30:04.187Z,14.88
2022-10-22T02:45:11.276Z,14.81
2022-10-22T03:00:17.789Z,14.75
2022-10-22T03:15:23.491Z,14.81
2022-10-22T03:30:29.193Z,14.81
2022-10-22T03:45:34.798Z,14.63
2022-10-22T04:00:40.391Z,14.56
2022-10-22T04:30:56.495Z,14.44
2022-10-22T04:46:04.077Z,14.38
2022-10-22T05:01:18.865Z,14.44
2022-10-22T05:16:24.752Z,14.44
2022-10-22T05:31:30.402Z,14.38
2022-10-22T05:46:37.995Z,14.25
2022-10-22T06:01:44.470Z,14.25
2022-10-22T06:16:50.520Z,14.38
2022-10-22T06:31:56.256Z,14.38
2022-10-22T06:47:02.648Z,14.31
2022-10-22T07:02:08.806Z,14.25
2022-10-22T07:17:14.626Z,14.50
2022-10-22T07:32:23.719Z,14.69
2022-10-22T07:47:29.643Z,14.69
2022-10-22T08:02:35.394Z,14.75
2022-10-22T08:17:41.084Z,14.88
2022-10-22T08:32:49.247Z,15.00
2022-10-22T08:48:10.979Z,15.19
2022-10-22T09:03:33.756Z,15.38
2022-10-22T09:18:48.117Z,15.50
2022-10-22T09:33:53.683Z,15.56
2022-10-22T09:49:06.258Z,15.63
2022-10-22T10:04:15.068Z,15.88
2022-10-22T10:19:37.421Z,15.88
2022-10-22T10:34:49.516Z,15.88
2022-10-22T10:49:57.610Z,15.94
2022-10-22T11:05:26.036Z,16.13
2022-10-22T11:20:42.253Z,16.25
2022-10-22T11:35:49.008Z,16.25
2022-10-22T11:51:00.360Z,16.50
2022-10-22T12:06:21.745Z,16.31
2022-10-22T12:21:27.950Z,16.50
2022-10-22T12:36:36.606Z,16.38
2022-10-22T12:51:42.608Z,16.44
2022-10-22T13:06:49.238Z,16.63
2022-10-22T13:21:55.598Z,16.56
2022-10-22T13:37:01.535Z,16.44
2022-10-22T13:52:07.778Z,16.44
2022-10-22T14:07:16.993Z,16.44
2022-10-22T14:22:23.222Z,16.31
2022-10-22T14:37:29.055Z,16.25
2022-10-22T14:52:34.825Z,16.06
2022-10-22T15:07:41.178Z,16.13
2022-10-22T15:22:47.362Z,16.06
2022-10-22T15:37:54.919Z,16.13
2022-10-22T15:53:00.759Z,16.06
2022-10-22T16:08:06.915Z,15.94
2022-10-22T16:23:14.180Z,15.81
2022-10-22T16:38:19.906Z,15.63
2022-10-22T16:53:25.799Z,15.63
2022-10-22T17:08:31.793Z,15.50
2022-10-22T17:23:37.936Z,15.44
2022-10-22T17:38:45.736Z,15.50
2022-10-22T17:53:52.223Z,15.38
2022-10-22T18:08:58.134Z,15.38
2022-10-22T18:24:03.988Z,15.31
2022-10-22T18:39:10.096Z,15.19
2022-10-22T18:54:23.201Z,15.19
2022-10-22T19:09:29.946Z,15.13
2022-10-22T19:24:36.196Z,15.13
2022-10-22T19:39:42.144Z,15.06
2022-10-22T19:54:48.179Z,14.94
2022-10-22T20:09:54.085Z,14.88
2022-10-22T20:24:59.992Z,14.88
2022-10-22T20:40:06.601Z,15.00
2022-10-22T20:55:12.772Z,14.81
2022-10-22T21:10:18.684Z,14.75
2022-10-22T21:25:24.740Z,14.69
2022-10-22T21:40:30.549Z,14.69
2022-10-22T21:55:40.115Z,14.63
2022-10-22T22:10:46.280Z,14.56
2022-10-22T22:25:52.170Z,14.50
2022-10-22T22:41:00.801Z,14.38
2022-10-22T22:56:09.728Z,14.38
2022-10-22T23:11:16.094Z,14.44
2022-10-22T23:26:24.474Z,14.44
2022-10-22T23:41:30.157Z,14.38
2022-10-22T23:56:36.058Z,14.38
